Kalispell, Montana
Current Conditions -  °F | °C
As of 4:55 PM on Sunday 23 Nov 2014 (Local Time) from KGPI Reporting Station
Light Snow Light Snow  
Wind Chill: 24°   Ceiling: 700
Heat Index: 33°   Visibility: 6mi
Dew Point: 32°   Wind: 13mph
Humidity: 96%   Direction: 160°SSE
Pressure: 29.9"   Gusts: NA
Location:  48.2°N, 114.31°W
Report Text: KGPI 232355Z 16011KT 6SM -SN BR OVC007 01/00 A2990 RMK AO2 CIG 005V011 SLP152 P0001 60009 T00060000 10033 20006 56023
Loading
Personal Weather Stations






























Interactive Weather Map New forecast layout! Learn more

10-Day Weather Forecast

Advertisements
Track Severe Weather on mobile